^^
Your Local Weather - Clay, NY Station Historical Data
Daily Summary for February 4, 2018 Units:  English    Metric   Both
« Previous Day
Next Day »
Daily Weekly Monthly Yearly Custom
  High: Low: Average:
Temperature: 35.7 °F 29.9 °F 32 °F
Dew Point: 29.7 °F 12.9 °F 25.1 °F
Humidity: 93% 44% 78%
Wind Speed: 8.0mph 0.0mph 3.6mph
Wind Gust: 17.0mph - -
Wind- - South
Pressure: 30.03 in 29.65 in -
Precipitation: 0.00 in    
Historical Graphs
 
 
Tabular Data for February 4, 2018
Time Temperature Dew Point Pressure Wind Wind Speed Wind Gust Humidity Rainfall Rate (Hourly) solar
00:02 30.2 °F 15.5 °F 30.03 in SSE 5.0 mph 7.0 mph 54% 0.00 in 0 W/m2
00:08 30.3 °F 15.2 °F 30.03 in SSW 5.0 mph 7.0 mph 53% 0.00 in 0 W/m2
00:13 30.6 °F 15.0 °F 30.03 in SE 5.0 mph 10.0 mph 52% 0.00 in 0 W/m2
00:19 30.7 °F 15.1 °F 30.02 in SW 6.0 mph 6.0 mph 52% 0.00 in 0 W/m2
00:25 30.7 °F 15.1 °F 30.02 in South 5.0 mph 6.0 mph 52% 0.00 in 0 W/m2
00:32 31.1 °F 15.5 °F 30.02 in SSW 6.0 mph 7.0 mph 52% 0.00 in 0 W/m2
00:38 31.3 °F 15.7 °F 30.02 in SW 6.0 mph 7.0 mph 52% 0.00 in 0 W/m2
00:43 31.4 °F 15.3 °F 30.02 in South 6.0 mph 6.0 mph 51% 0.00 in 0 W/m2
00:49 31.5 °F 14.0 °F 30.02 in South 8.0 mph 8.0 mph 48% 0.00 in 0 W/m2
00:55 31.4 °F 13.9 °F 30.01 in South 7.0 mph 8.0 mph 48% 0.00 in 0 W/m2
01:02 31.4 °F 13.5 °F 30.00 in SSE 6.0 mph 8.0 mph 47% 0.00 in 0 W/m2
01:08 31.4 °F 13.5 °F 30.00 in SSE 6.0 mph 11.0 mph 47% 0.00 in 0 W/m2
01:14 31.4 °F 13.5 °F 30.00 in South 6.0 mph 7.0 mph 47% 0.00 in 0 W/m2
01:20 31.3 °F 13.4 °F 30.00 in South 6.0 mph 6.0 mph 47% 0.00 in 0 W/m2
01:26 31.3 °F 12.9 °F 30.00 in SSE 5.0 mph 8.0 mph 46% 0.00 in 0 W/m2
01:32 31.4 °F 13.0 °F 30.00 in SSE 5.0 mph 5.0 mph 46% 0.00 in 0 W/m2
01:38 31.4 °F 13.0 °F 29.99 in South 4.0 mph 5.0 mph 46% 0.00 in 0 W/m2
01:44 31.3 °F 12.9 °F 29.99 in SSE 3.0 mph 4.0 mph 46% 0.00 in 0 W/m2
01:50 31.3 °F 12.9 °F 29.99 in South 3.0 mph 3.0 mph 46% 0.00 in 0 W/m2
01:56 31.4 °F 13.5 °F 29.97 in SSE 3.0 mph 7.0 mph 47% 0.00 in 0 W/m2
02:02 31.7 °F 13.7 °F 29.98 in South 4.0 mph 4.0 mph 47% 0.00 in 0 W/m2
02:08 31.9 °F 13.4 °F 29.97 in SSE 4.0 mph 4.0 mph 46% 0.00 in 0 W/m2
02:14 32.1 °F 14.1 °F 29.97 in SSE 5.0 mph 7.0 mph 47% 0.00 in 0 W/m2
02:20 32.1 °F 14.1 °F 29.96 in SSW 4.0 mph 6.0 mph 47% 0.00 in 0 W/m2
02:26 32.3 °F 13.8 °F 29.96 in South 4.0 mph 6.0 mph 46% 0.00 in 0 W/m2
02:32 32.2 °F 13.7 °F 29.96 in South 5.0 mph 6.0 mph 46% 0.00 in 0 W/m2
02:38 32.1 °F 14.1 °F 29.96 in South 4.0 mph 6.0 mph 47% 0.00 in 0 W/m2
02:44 32.1 °F 13.6 °F 29.96 in South 3.0 mph 10.0 mph 46% 0.00 in 0 W/m2
02:50 32.5 °F 14.0 °F 29.95 in SW 4.0 mph 4.0 mph 46% 0.00 in 0 W/m2
02:56 32.8 °F 13.8 °F 29.95 in South 5.0 mph 7.0 mph 45% 0.00 in 0 W/m2
03:02 32.9 °F 13.9 °F 29.95 in South 5.0 mph 8.0 mph 45% 0.00 in 0 W/m2
03:08 33.1 °F 14.0 °F 29.95 in SW 4.0 mph 8.0 mph 45% 0.00 in 0 W/m2
03:14 33.2 °F 13.6 °F 29.95 in South 4.0 mph 9.0 mph 44% 0.00 in 0 W/m2
03:20 33.2 °F 13.6 °F 29.94 in SSE 5.0 mph 6.0 mph 44% 0.00 in 0 W/m2
03:26 33.2 °F 14.1 °F 29.94 in South 5.0 mph 6.0 mph 45% 0.00 in 0 W/m2
03:32 33.3 °F 14.2 °F 29.94 in SW 4.0 mph 6.0 mph 45% 0.00 in 0 W/m2
03:38 33.4 °F 14.8 °F 29.94 in SSW 3.0 mph 6.0 mph 46% 0.00 in 0 W/m2
03:44 33.8 °F 14.7 °F 29.95 in SW 4.0 mph 7.0 mph 45% 0.00 in 0 W/m2
03:50 34.3 °F 14.6 °F 29.95 in SSE 5.0 mph 5.0 mph 44% 0.00 in 0 W/m2
03:58 34.5 °F 14.8 °F 29.94 in South 6.0 mph 8.0 mph 44% 0.00 in 0 W/m2
04:04 34.5 °F 14.8 °F 29.94 in South 5.0 mph 6.0 mph 44% 0.00 in 0 W/m2
04:10 34.6 °F 15.4 °F 29.94 in SW 5.0 mph 6.0 mph 45% 0.00 in 0 W/m2
04:16 35.1 °F 15.3 °F 29.94 in SSW 4.0 mph 7.0 mph 44% 0.00 in 0 W/m2
04:22 35.4 °F 15.6 °F 29.95 in South 7.0 mph 17.0 mph 44% 0.00 in 0 W/m2
04:28 35.3 °F 15.5 °F 29.95 in SW 7.0 mph 17.0 mph 44% 0.00 in 0 W/m2
04:34 35.3 °F 16.0 °F 29.94 in SW 7.0 mph 8.0 mph 45% 0.00 in 0 W/m2
04:40 35.4 °F 16.6 °F 29.94 in South 8.0 mph 10.0 mph 46% 0.00 in 0 W/m2
04:46 35.7 °F 17.4 °F 29.94 in SSW 8.0 mph 10.0 mph 47% 0.00 in 0 W/m2
04:52 35.6 °F 17.8 °F 29.94 in South 8.0 mph 8.0 mph 48% 0.00 in 0 W/m2
04:58 35.7 °F 17.9 °F 29.93 in South 7.0 mph 8.0 mph 48% 0.00 in 0 W/m2
05:04 35.6 °F 18.8 °F 29.93 in SSW 7.0 mph 7.0 mph 50% 0.00 in 0 W/m2
05:10 35.6 °F 18.8 °F 29.94 in SW 6.0 mph 6.0 mph 50% 0.00 in 0 W/m2
05:16 35.7 °F 18.9 °F 29.94 in SSW 6.0 mph 6.0 mph 50% 0.00 in 0 W/m2
05:22 35.6 °F 19.2 °F 29.94 in SW 5.0 mph 7.0 mph 51% 0.00 in 0 W/m2
05:28 35.5 °F 19.1 °F 29.94 in West 3.0 mph 7.0 mph 51% 0.00 in 0 W/m2
05:34 35.6 °F 20.1 °F 29.94 in SW 3.0 mph 10.0 mph 53% 0.00 in 0 W/m2
05:40 35.5 °F 21.8 °F 29.94 in SW 5.0 mph 7.0 mph 57% 0.00 in 0 W/m2
05:46 35.3 °F 22.8 °F 29.94 in South 5.0 mph 7.0 mph 60% 0.00 in 0 W/m2
05:52 35.3 °F 23.6 °F 29.94 in South 6.0 mph 7.0 mph 62% 0.00 in 0 W/m2
05:58 35.3 °F 23.6 °F 29.94 in South 6.0 mph 9.0 mph 62% 0.00 in 0 W/m2
06:04 35.3 °F 24.0 °F 29.94 in SSW 5.0 mph 12.0 mph 63% 0.00 in 0 W/m2
06:10 35.4 °F 24.0 °F 29.94 in SSW 5.0 mph 5.0 mph 63% 0.00 in 0 W/m2
06:16 35.4 °F 24.0 °F 29.94 in South 4.0 mph 8.0 mph 63% 0.00 in 0 W/m2
06:22 35.6 °F 24.2 °F 29.94 in SSW 5.0 mph 7.0 mph 63% 0.00 in 0 W/m2
06:28 35.7 °F 24.7 °F 29.94 in South 5.0 mph 9.0 mph 64% 0.00 in 0 W/m2
06:34 35.7 °F 24.3 °F 29.94 in SSE 5.0 mph 8.0 mph 63% 0.00 in 0 W/m2
06:40 35.5 °F 24.5 °F 29.94 in SSW 5.0 mph 5.0 mph 64% 0.00 in 0 W/m2
06:46 35.0 °F 24.0 °F 29.94 in South 5.0 mph 7.0 mph 64% 0.00 in 0 W/m2
06:52 34.8 °F 24.6 °F 29.94 in South 7.0 mph 7.0 mph 66% 0.00 in 0 W/m2
06:58 34.3 °F 24.5 °F 29.94 in South 6.0 mph 9.0 mph 67% 0.00 in 0 W/m2
07:04 33.9 °F 24.8 °F 29.95 in SSW 6.0 mph 9.0 mph 69% 0.00 in 0 W/m2
07:10 33.3 °F 24.9 °F 29.95 in South 5.0 mph 10.0 mph 71% 0.00 in 0 W/m2
07:16 32.8 °F 25.1 °F 29.95 in South 6.0 mph 10.0 mph 73% 0.00 in 0 W/m2
07:22 32.1 °F 25.4 °F 29.94 in SSW 6.0 mph 10.0 mph 76% 0.00 in 0 W/m2
07:28 31.7 °F 25.9 °F 29.95 in SSE 5.0 mph 10.0 mph 79% 0.00 in 0 W/m2
07:34 31.4 °F 25.9 °F 29.95 in South 5.0 mph 8.0 mph 80% 0.00 in 0 W/m2
07:40 31.2 °F 26.3 °F 29.95 in South 5.0 mph 5.0 mph 82% 0.00 in 0 W/m2
07:46 31.0 °F 26.4 °F 29.95 in South 6.0 mph 6.0 mph 83% 0.00 in 7 W/m2
07:52 31.0 °F 26.7 °F 29.95 in SSW 5.0 mph 5.0 mph 84% 0.00 in 9 W/m2
07:58 30.9 °F 26.9 °F 29.95 in South 5.0 mph 5.0 mph 85% 0.00 in 9 W/m2
08:04 30.8 °F 26.8 °F 29.95 in South 5.0 mph 10.0 mph 85% 0.00 in 11 W/m2
08:10 30.8 °F 27.1 °F 29.94 in South 5.0 mph 5.0 mph 86% 0.00 in 14 W/m2
08:16 30.7 °F 27.0 °F 29.94 in SSE 5.0 mph 5.0 mph 86% 0.00 in 14 W/m2
08:22 30.7 °F 27.3 °F 29.94 in SSW 5.0 mph 6.0 mph 87% 0.00 in 16 W/m2
08:28 30.7 °F 27.3 °F 29.94 in South 5.0 mph 6.0 mph 87% 0.00 in 21 W/m2
08:34 30.7 °F 27.6 °F 29.94 in SSW 5.0 mph 6.0 mph 88% 0.00 in 21 W/m2
08:40 30.8 °F 27.7 °F 29.93 in South 5.0 mph 5.0 mph 88% 0.00 in 21 W/m2
08:46 30.9 °F 27.5 °F 29.93 in SSE 5.0 mph 6.0 mph 87% 0.00 in 25 W/m2
08:52 31.0 °F 27.6 °F 29.93 in SSE 6.0 mph 9.0 mph 87% 0.00 in 26 W/m2
08:58 31.0 °F 27.6 °F 29.94 in SSW 6.0 mph 9.0 mph 87% 0.00 in 25 W/m2
09:04 30.9 °F 27.5 °F 29.93 in SSE 5.0 mph 7.0 mph 87% 0.00 in 28 W/m2
09:10 30.8 °F 27.4 °F 29.93 in SE 6.0 mph 11.0 mph 87% 0.00 in 30 W/m2
09:16 30.8 °F 27.7 °F 29.93 in SSW 7.0 mph 11.0 mph 88% 0.00 in 35 W/m2
09:22 30.8 °F 27.7 °F 29.93 in SSE 6.0 mph 7.0 mph 88% 0.00 in 39 W/m2
09:28 30.8 °F 27.7 °F 29.93 in South 5.0 mph 7.0 mph 88% 0.00 in 49 W/m2
09:34 30.8 °F 27.7 °F 29.93 in SSE 4.0 mph 8.0 mph 88% 0.00 in 51 W/m2
09:40 30.9 °F 27.8 °F 29.93 in South 5.0 mph 6.0 mph 88% 0.00 in 51 W/m2
09:46 31.0 °F 27.9 °F 29.93 in South 6.0 mph 6.0 mph 88% 0.00 in 53 W/m2
09:52 31.1 °F 28.0 °F 29.93 in South 5.0 mph 5.0 mph 88% 0.00 in 63 W/m2
09:58 31.3 °F 28.2 °F 29.92 in South 6.0 mph 7.0 mph 88% 0.00 in 70 W/m2
10:04 31.4 °F 28.0 °F 29.92 in SSE 6.0 mph 9.0 mph 87% 0.00 in 70 W/m2
10:10 31.5 °F 28.1 °F 29.92 in South 6.0 mph 8.0 mph 87% 0.00 in 76 W/m2
10:16 31.5 °F 28.1 °F 29.92 in ESE 6.0 mph 10.0 mph 87% 0.00 in 74 W/m2
10:22 31.5 °F 28.1 °F 29.92 in South 6.0 mph 12.0 mph 87% 0.00 in 84 W/m2
10:28 31.6 °F 28.2 °F 29.92 in SSW 6.0 mph 12.0 mph 87% 0.00 in 98 W/m2
10:34 31.7 °F 28.3 °F 29.92 in SW 6.0 mph 6.0 mph 87% 0.00 in 113 W/m2
10:40 31.8 °F 28.4 °F 29.92 in SE 5.0 mph 5.0 mph 87% 0.00 in 123 W/m2
10:46 31.9 °F 28.5 °F 29.92 in SW 6.0 mph 9.0 mph 87% 0.00 in 114 W/m2
10:52 32.0 °F 28.6 °F 29.92 in South 5.0 mph 10.0 mph 87% 0.00 in 111 W/m2
10:58 32.0 °F 28.6 °F 29.92 in South 6.0 mph 10.0 mph 87% 0.00 in 102 W/m2
11:04 32.1 °F 28.4 °F 29.91 in SSW 7.0 mph 9.0 mph 86% 0.00 in 109 W/m2
11:10 32.2 °F 28.5 °F 29.91 in SSE 7.0 mph 7.0 mph 86% 0.00 in 107 W/m2
11:16 32.3 °F 28.0 °F 29.91 in SW 7.0 mph 8.0 mph 84% 0.00 in 114 W/m2
11:22 32.5 °F 28.2 °F 29.91 in South 6.0 mph 8.0 mph 84% 0.00 in 113 W/m2
11:28 32.7 °F 27.8 °F 29.90 in South 7.0 mph 14.0 mph 82% 0.00 in 104 W/m2
11:34 32.7 °F 27.8 °F 29.90 in SSE 8.0 mph 13.0 mph 82% 0.00 in 109 W/m2
11:40 32.6 °F 27.7 °F 29.90 in South 6.0 mph 6.0 mph 82% 0.00 in 104 W/m2
11:46 32.5 °F 27.9 °F 29.90 in SSE 6.0 mph 8.0 mph 83% 0.00 in 98 W/m2
11:52 32.5 °F 27.9 °F 29.89 in South 7.0 mph 7.0 mph 83% 0.00 in 95 W/m2
11:58 32.3 °F 28.0 °F 29.89 in SSE 6.0 mph 7.0 mph 84% 0.00 in 88 W/m2
12:04 32.2 °F 27.9 °F 29.89 in SSE 7.0 mph 10.0 mph 84% 0.00 in 84 W/m2
12:10 32.1 °F 28.1 °F 29.88 in SSE 7.0 mph 7.0 mph 85% 0.00 in 84 W/m2
12:16 32.1 °F 28.1 °F 29.88 in WSW 6.0 mph 8.0 mph 85% 0.00 in 88 W/m2
12:22 32.1 °F 28.1 °F 29.87 in South 6.0 mph 7.0 mph 85% 0.00 in 90 W/m2
12:28 32.2 °F 28.2 °F 29.87 in South 6.0 mph 7.0 mph 85% 0.00 in 76 W/m2
12:40 31.9 °F 28.2 °F 29.86 in SSW 6.0 mph 9.0 mph 86% 0.00 in 74 W/m2
12:46 31.9 °F 28.2 °F 29.86 in South 6.0 mph 9.0 mph 86% 0.00 in 76 W/m2
12:52 31.8 °F 28.4 °F 29.85 in SSE 6.0 mph 8.0 mph 87% 0.00 in 83 W/m2
12:58 31.9 °F 28.5 °F 29.85 in SSE 7.0 mph 10.0 mph 87% 0.00 in 95 W/m2
13:04 31.9 °F 28.5 °F 29.85 in South 7.0 mph 9.0 mph 87% 0.00 in 100 W/m2
13:10 32.1 °F 28.7 °F 29.85 in SE 6.0 mph 6.0 mph 87% 0.00 in 104 W/m2
13:16 32.2 °F 28.5 °F 29.84 in South 6.0 mph 6.0 mph 86% 0.00 in 107 W/m2
13:22 32.3 °F 28.6 °F 29.84 in SSW 6.0 mph 6.0 mph 86% 0.00 in 102 W/m2
13:28 32.3 °F 28.6 °F 29.84 in SW 7.0 mph 10.0 mph 86% 0.00 in 90 W/m2
13:34 32.3 °F 28.6 °F 29.84 in South 7.0 mph 11.0 mph 86% 0.00 in 86 W/m2
13:40 32.1 °F 28.7 °F 29.84 in SSW 6.0 mph 6.0 mph 87% 0.00 in 81 W/m2
13:46 32.0 °F 28.6 °F 29.83 in SSW 6.0 mph 11.0 mph 87% 0.00 in 72 W/m2
13:52 31.9 °F 28.8 °F 29.83 in South 6.0 mph 7.0 mph 88% 0.00 in 70 W/m2
13:58 31.9 °F 28.8 °F 29.83 in South 5.0 mph 7.0 mph 88% 0.00 in 67 W/m2
14:04 31.8 °F 28.9 °F 29.82 in SSE 5.0 mph 5.0 mph 89% 0.00 in 63 W/m2
14:10 31.8 °F 28.9 °F 29.82 in SSE 5.0 mph 5.0 mph 89% 0.00 in 54 W/m2
14:16 31.8 °F 28.9 °F 29.81 in SSE 5.0 mph 5.0 mph 89% 0.00 in 47 W/m2
14:22 31.7 °F 29.1 °F 29.81 in SSW 5.0 mph 6.0 mph 90% 0.00 in 44 W/m2
14:28 31.7 °F 29.1 °F 29.81 in South 4.0 mph 6.0 mph 90% 0.00 in 46 W/m2
14:34 31.7 °F 29.1 °F 29.81 in SE 4.0 mph 7.0 mph 90% 0.00 in 44 W/m2
14:40 31.7 °F 29.1 °F 29.81 in SSE 4.0 mph 8.0 mph 90% 0.00 in 37 W/m2
14:46 31.7 °F 29.1 °F 29.81 in SSW 3.0 mph 8.0 mph 90% 0.00 in 33 W/m2
14:52 31.7 °F 29.1 °F 29.80 in SSE 3.0 mph 7.0 mph 90% 0.00 in 35 W/m2
14:58 31.6 °F 29.3 °F 29.80 in SSE 4.0 mph 7.0 mph 91% 0.00 in 40 W/m2
15:04 31.6 °F 29.3 °F 29.79 in SSE 4.0 mph 4.0 mph 91% 0.00 in 42 W/m2
15:10 31.6 °F 29.3 °F 29.79 in SSE 4.0 mph 4.0 mph 91% 0.00 in 47 W/m2
15:16 31.6 °F 29.3 °F 29.79 in SSE 4.0 mph 4.0 mph 91% 0.00 in 44 W/m2
15:22 31.6 °F 29.3 °F 29.79 in SSE 3.0 mph 3.0 mph 91% 0.00 in 44 W/m2
15:28 31.6 °F 29.3 °F 29.79 in SSE 3.0 mph 4.0 mph 91% 0.00 in 39 W/m2
15:34 31.7 °F 29.4 °F 29.79 in South 3.0 mph 3.0 mph 91% 0.00 in 40 W/m2
15:40 31.7 °F 29.4 °F 29.78 in SE 3.0 mph 3.0 mph 91% 0.00 in 33 W/m2
15:46 31.6 °F 29.3 °F 29.78 in SSE 3.0 mph 3.0 mph 91% 0.00 in 26 W/m2
15:52 31.7 °F 29.4 °F 29.78 in SE 3.0 mph 3.0 mph 91% 0.00 in 25 W/m2
15:58 31.7 °F 29.6 °F 29.78 in SSE 3.0 mph 3.0 mph 92% 0.00 in 25 W/m2
16:04 31.7 °F 29.6 °F 29.78 in SSE 2.0 mph 3.0 mph 92% 0.00 in 23 W/m2
16:10 31.8 °F 29.7 °F 29.78 in SSE 3.0 mph 3.0 mph 92% 0.00 in 23 W/m2
16:16 31.8 °F 29.7 °F 29.77 in SSE 3.0 mph 3.0 mph 92% 0.00 in 19 W/m2
16:22 31.8 °F 29.7 °F 29.77 in SE 3.0 mph 5.0 mph 92% 0.00 in 12 W/m2
16:28 31.8 °F 29.7 °F 29.77 in SSE 2.0 mph 5.0 mph 92% 0.00 in 9 W/m2
16:34 31.8 °F 29.7 °F 29.77 in SSE 1.0 mph 2.0 mph 92% 0.00 in 9 W/m2
16:40 31.7 °F 29.6 °F 29.77 in SSE 1.0 mph 2.0 mph 92% 0.00 in 7 W/m2
16:46 31.7 °F 29.6 °F 29.77 in SSE 1.0 mph 2.0 mph 92% 0.00 in 5 W/m2
16:52 31.6 °F 29.5 °F 29.77 in Calm     92% 0.00 in 0 W/m2
16:58 31.6 °F 29.5 °F 29.77 in Calm     92% 0.00 in 0 W/m2
17:04 31.6 °F 29.5 °F 29.76 in Calm     92% 0.00 in 0 W/m2
17:10 31.5 °F 29.4 °F 29.76 in Calm     92% 0.00 in 0 W/m2
17:16 31.4 °F 29.3 °F 29.76 in Calm     92% 0.00 in 0 W/m2
17:22 31.4 °F 29.3 °F 29.77 in Calm     92% 0.00 in 0 W/m2
17:28 31.4 °F 29.3 °F 29.76 in Calm     92% 0.00 in 0 W/m2
17:34 31.4 °F 29.3 °F 29.76 in Calm   2.0 mph 92% 0.00 in 0 W/m2
17:40 31.4 °F 29.3 °F 29.76 in SSE 1.0 mph 1.0 mph 92% 0.00 in 0 W/m2
17:46 31.4 °F 29.3 °F 29.76 in Calm   1.0 mph 92% 0.00 in 0 W/m2
17:52 31.4 °F 29.3 °F 29.76 in Calm     92% 0.00 in 0 W/m2
17:58 31.4 °F 29.3 °F 29.76 in Calm   1.0 mph 92% 0.00 in 0 W/m2
18:04 31.5 °F 29.4 °F 29.76 in SSE 1.0 mph 3.0 mph 92% 0.00 in 0 W/m2
18:10 31.5 °F 29.4 °F 29.76 in SSE 2.0 mph 2.0 mph 92% 0.00 in 0 W/m2
18:16 31.5 °F 29.4 °F 29.76 in SSE 1.0 mph 2.0 mph 92% 0.00 in 0 W/m2
18:22 31.6 °F 29.5 °F 29.76 in Calm     92% 0.00 in 0 W/m2
18:28 31.6 °F 29.5 °F 29.76 in Calm     92% 0.00 in 0 W/m2
18:34 31.6 °F 29.5 °F 29.76 in Calm     92% 0.00 in 0 W/m2
18:40 31.6 °F 29.5 °F 29.76 in Calm     92% 0.00 in 0 W/m2
18:46 31.6 °F 29.5 °F 29.76 in Calm     92% 0.00 in 0 W/m2
18:52 31.6 °F 29.5 °F 29.75 in Calm     92% 0.00 in 0 W/m2
18:58 31.6 °F 29.5 °F 29.75 in Calm     92% 0.00 in 0 W/m2
19:04 31.6 °F 29.5 °F 29.75 in Calm     92% 0.00 in 0 W/m2
19:10 31.6 °F 29.5 °F 29.74 in Calm     92% 0.00 in 0 W/m2
19:16 31.6 °F 29.5 °F 29.74 in Calm     92% 0.00 in 0 W/m2
19:22 31.6 °F 29.5 °F 29.74 in Calm     92% 0.00 in 0 W/m2
19:28 31.5 °F 29.4 °F 29.73 in Calm     92% 0.00 in 0 W/m2
19:34 31.5 °F 29.4 °F 29.74 in Calm     92% 0.00 in 0 W/m2
19:40 31.5 °F 29.7 °F 29.73 in Calm     93% 0.00 in 0 W/m2
19:46 31.4 °F 29.6 °F 29.73 in Calm     93% 0.00 in 0 W/m2
19:52 31.4 °F 29.6 °F 29.73 in Calm     93% 0.00 in 0 W/m2
19:58 31.4 °F 29.6 °F 29.73 in Calm     93% 0.00 in 0 W/m2
20:04 31.4 °F 29.6 °F 29.73 in Calm     93% 0.00 in 0 W/m2
20:10 31.3 °F 29.5 °F 29.72 in Calm     93% 0.00 in 0 W/m2
20:16 31.2 °F 29.4 °F 29.72 in Calm     93% 0.00 in 0 W/m2
20:22 31.3 °F 29.5 °F 29.72 in Calm     93% 0.00 in 0 W/m2
20:28 31.3 °F 29.5 °F 29.71 in Calm     93% 0.00 in 0 W/m2
20:34 31.3 °F 29.5 °F 29.71 in Calm     93% 0.00 in 0 W/m2
20:40 31.4 °F 29.6 °F 29.71 in Calm     93% 0.00 in 0 W/m2
20:46 31.2 °F 29.4 °F 29.70 in Calm     93% 0.00 in 0 W/m2
20:52 31.1 °F 29.3 °F 29.70 in Calm     93% 0.00 in 0 W/m2
20:58 30.8 °F 29.0 °F 29.69 in Calm     93% 0.00 in 0 W/m2
21:04 30.7 °F 28.9 °F 29.69 in Calm     93% 0.00 in 0 W/m2
21:10 30.8 °F 29.0 °F 29.68 in Calm     93% 0.00 in 0 W/m2
21:16 30.8 °F 29.0 °F 29.68 in Calm     93% 0.00 in 0 W/m2
21:22 30.8 °F 29.0 °F 29.68 in Calm     93% 0.00 in 0 W/m2
21:28 30.7 °F 28.9 °F 29.68 in Calm     93% 0.00 in 0 W/m2
21:34 30.7 °F 28.9 °F 29.68 in Calm     93% 0.00 in 0 W/m2
21:40 30.6 °F 28.8 °F 29.68 in Calm     93% 0.00 in 0 W/m2
21:46 30.6 °F 28.8 °F 29.68 in Calm     93% 0.00 in 0 W/m2
21:52 30.5 °F 28.7 °F 29.68 in Calm     93% 0.00 in 0 W/m2
21:58 30.5 °F 28.7 °F 29.68 in Calm     93% 0.00 in 0 W/m2
22:04 30.4 °F 28.6 °F 29.68 in Calm     93% 0.00 in 0 W/m2
22:10 30.4 °F 28.6 °F 29.68 in Calm     93% 0.00 in 0 W/m2
22:16 30.4 °F 28.6 °F 29.68 in Calm     93% 0.00 in 0 W/m2
22:22 30.3 °F 28.5 °F 29.68 in Calm     93% 0.00 in 0 W/m2
22:28 30.3 °F 28.5 °F 29.68 in Calm     93% 0.00 in 0 W/m2
22:34 30.3 °F 28.5 °F 29.68 in Calm     93% 0.00 in 0 W/m2
22:40 30.3 °F 28.5 °F 29.68 in Calm     93% 0.00 in 0 W/m2
22:46 30.3 °F 28.5 °F 29.68 in Calm     93% 0.00 in 0 W/m2
22:52 30.2 °F 28.4 °F 29.67 in Calm     93% 0.00 in 0 W/m2
22:58 30.1 °F 28.3 °F 29.67 in Calm     93% 0.00 in 0 W/m2
23:04 30.0 °F 28.2 °F 29.66 in Calm     93% 0.00 in 0 W/m2
23:10 30.0 °F 28.2 °F 29.66 in Calm     93% 0.00 in 0 W/m2
23:16 29.9 °F 28.1 °F 29.66 in Calm     93% 0.00 in 0 W/m2
23:22 29.9 °F 28.1 °F 29.66 in Calm     93% 0.00 in 0 W/m2
23:28 30.0 °F 28.2 °F 29.66 in Calm     93% 0.00 in 0 W/m2
23:34 30.0 °F 28.2 °F 29.65 in Calm     93% 0.00 in 0 W/m2
23:40 30.1 °F 28.3 °F 29.65 in Calm     93% 0.00 in 0 W/m2
23:46 30.1 °F 28.3 °F 29.65 in Calm     93% 0.00 in 0 W/m2
23:52 30.0 °F 28.2 °F 29.65 in Calm     93% 0.00 in 0 W/m2
23:58 30.0 °F 28.2 °F 29.65 in Calm     93% 0.00 in 0 W/m2
Country Meadow, Clay, NY, USA
Compliments of Weather Underground - 2 mb